»·PEaware :: N360AS KOSH-KDLL

N360AS :: KOSH-KDLL

FLIGHT INFORMATION

Flight Status: Arrived
Operator: Privately registered:
United States
More flights under this callsign
Pilot: Chuck O. (4337)
Aircraft: Unknown
(LEG2)
More flights by this aircraft type
Origin: KOSH Wittman Regl
United States
Destination: KDLL Baraboo Wisconsin Dells
United States
More flights between these airports :: More routes between these airports
Route: RIPON FISK
File this flight plan on PilotEdge
Remarks: SV2022 Sunday
Altitude:
(Current/Filed)
2,300ft
Speed:
(Current/Filed)
135kts
Departed: 17-Jul-22 08:54 AM
Arrived: 17-Jul-22 11:56 AM
Distance/Time
Traveled:
60nm/3:02
Distance/Time
To Go:
Arrived

Flight Plot

Page will automatically refresh every two minutes.

Flight plan parsing failed; only flown route is shown


Map Options




Map Legend


Flown Route
Filed Route
Departure Airport
Arrival Airport
Navaid (VOR, NDB)
Fix

Horizontal Profiles

Position Reports

Time Latitude Longitude Heading Altitude Ground
Speed
17-Jul-22 08:45 43.520118 -89.773617 188 981ft 0kts
17-Jul-22 08:46 43.520118 -89.773617 188 981ft 0kts
17-Jul-22 08:47 43.520118 -89.773617 188 981ft 0kts
17-Jul-22 08:48 43.520118 -89.773617 188 981ft 0kts
17-Jul-22 08:49 43.520118 -89.773617 188 981ft 0kts
17-Jul-22 08:50 43.519069 -89.772566 187 981ft 13kts
17-Jul-22 08:51 43.515789 -89.772812 101 981ft 0kts
17-Jul-22 08:52 43.515789 -89.772812 101 981ft 0kts
17-Jul-22 08:53 43.518630 -89.771138 9 981ft 74kts
17-Jul-22 08:54 43.552526 -89.756233 45 2248ft 164kts
17-Jul-22 08:55 43.583270 -89.694333 42 2300ft 208kts
17-Jul-22 08:56 43.626378 -89.639781 42 2301ft 210kts
17-Jul-22 08:57 43.666686 -89.581984 70 2301ft 211kts
17-Jul-22 08:58 43.683565 -89.503891 73 2300ft 211kts
17-Jul-22 08:59 43.699516 -89.425797 74 2299ft 206kts
17-Jul-22 09:00 43.713273 -89.357868 74 2301ft 151kts
17-Jul-22 09:01 43.722543 -89.312722 72 2100ft 112kts
17-Jul-22 09:02 43.730403 -89.274214 71 1799ft 93kts
17-Jul-22 09:03 43.737413 -89.239915 71 1798ft 92kts
17-Jul-22 09:04 43.740739 -89.204874 84 1798ft 92kts
17-Jul-22 09:05 43.741756 -89.168843 85 1799ft 94kts
17-Jul-22 09:06 43.742611 -89.132483 85 1798ft 94kts
17-Jul-22 09:07 43.752132 -89.098718 63 1799ft 94kts
17-Jul-22 09:08 43.762930 -89.065692 62 1798ft 94kts
17-Jul-22 09:09 43.774235 -89.033004 60 1799ft 94kts
17-Jul-22 09:10 43.786062 -89.000639 60 1798ft 93kts
17-Jul-22 09:11 43.797721 -88.968755 59 1798ft 92kts
17-Jul-22 09:12 43.809300 -88.937044 59 1798ft 92kts
17-Jul-22 09:13 43.820875 -88.905302 59 1798ft 92kts
17-Jul-22 09:14 43.832453 -88.873518 59 1798ft 92kts
17-Jul-22 09:15 43.845437 -88.842857 56 1798ft 92kts
17-Jul-22 09:16 43.859435 -88.813250 51 1798ft 92kts
17-Jul-22 09:17 43.874879 -88.784775 47 1799ft 92kts
17-Jul-22 09:18 43.891874 -88.758076 42 1799ft 92kts
17-Jul-22 09:19 43.909933 -88.732878 40 1799ft 92kts
17-Jul-22 09:20 43.929038 -88.708992 38 1798ft 92kts
17-Jul-22 09:21 43.948732 -88.686120 50 1785ft 92kts
17-Jul-22 09:22 43.952710 -88.651605 90 1789ft 92kts
17-Jul-22 09:23 43.952045 -88.615917 87 1789ft 92kts
17-Jul-22 09:24 43.951799 -88.580169 87 1789ft 92kts
17-Jul-22 09:25 43.951692 -88.544521 73 1799ft 90kts
17-Jul-22 09:26 43.975889 -88.537917 350 1191ft 93kts
17-Jul-22 09:27 43.973295 -88.556659 182 810ft 40kts
17-Jul-22 09:28 43.973135 -88.557402 359 810ft 8kts
17-Jul-22 09:29 43.977371 -88.557331 0 810ft 21kts
17-Jul-22 09:30 43.979146 -88.558012 340 810ft 3kts
17-Jul-22 09:31 43.980034 -88.558533 186 810ft 0kts
17-Jul-22 09:32 43.980034 -88.558533 186 810ft 0kts
17-Jul-22 09:33 43.980034 -88.558533 186 810ft 0kts
17-Jul-22 09:34 43.980034 -88.558533 186 810ft 0kts
17-Jul-22 09:35 43.980034 -88.558533 186 810ft 0kts
17-Jul-22 09:36 43.983207 -88.557988 359 810ft 16kts
17-Jul-22 09:37 43.985617 -88.557975 359 810ft 7kts
17-Jul-22 09:38 43.988358 -88.555975 42 810ft 5kts
17-Jul-22 09:39 43.987447 -88.554299 179 810ft 9kts
17-Jul-22 09:40 43.983356 -88.554354 177 810ft 27kts
17-Jul-22 10:04 43.952262 -88.636205 87 1865ft 97kts
17-Jul-22 10:05 43.950842 -88.599493 89 1727ft 96kts
17-Jul-22 10:06 43.950732 -88.561729 85 1727ft 98kts
17-Jul-22 10:07 43.956724 -88.531101 352 1722ft 101kts
17-Jul-22 10:09 43.970826 -88.557218 294 810ft 9kts
17-Jul-22 10:10 43.974216 -88.557363 356 810ft 14kts
17-Jul-22 10:11 43.978916 -88.557565 303 810ft 5kts
17-Jul-22 10:12 43.980114 -88.558541 262 810ft 4kts
17-Jul-22 10:14 43.980014 -88.558656 185 810ft 0kts
17-Jul-22 10:27 43.980014 -88.558656 185 810ft 0kts
17-Jul-22 10:52 43.740871 -89.169766 84 2299ft 139kts
17-Jul-22 10:53 43.746282 -89.117271 66 2301ft 139kts
17-Jul-22 10:54 43.762015 -89.068234 64 2299ft 139kts
17-Jul-22 10:55 43.778935 -89.019917 61 2299ft 139kts
17-Jul-22 10:56 43.796437 -88.972039 61 2299ft 139kts
17-Jul-22 10:57 43.813882 -88.924248 61 2299ft 139kts
17-Jul-22 10:58 43.831360 -88.876336 60 2299ft 139kts
17-Jul-22 10:59 43.852657 -88.831525 54 2300ft 139kts
17-Jul-22 11:00 43.875587 -88.788416 50 2300ft 139kts
17-Jul-22 11:01 43.901653 -88.748563 43 2299ft 139kts
17-Jul-22 11:02 43.929908 -88.711962 40 2299ft 139kts
17-Jul-22 11:03 43.958030 -88.675129 52 2299ft 139kts
17-Jul-22 11:04 43.976575 -88.632987 57 2309ft 104kts
17-Jul-22 11:05 43.990123 -88.599920 57 1864ft 99kts
17-Jul-22 11:06 43.999416 -88.566323 71 1590ft 91kts
17-Jul-22 11:07 43.991795 -88.550782 251 927ft 84kts
17-Jul-22 11:08 43.992321 -88.560020 282 810ft 1kts
17-Jul-22 11:09 43.992458 -88.562702 273 810ft 7kts
17-Jul-22 11:10 43.992498 -88.567057 261 810ft 18kts
17-Jul-22 11:11 43.992585 -88.572233 268 810ft 25kts
17-Jul-22 11:12 43.991042 -88.573450 96 810ft 12kts
17-Jul-22 11:13 43.990524 -88.571704 76 810ft 0kts
17-Jul-22 11:14 43.990524 -88.571704 76 810ft 0kts
17-Jul-22 11:15 43.990524 -88.571704 76 810ft 0kts
17-Jul-22 11:16 43.990524 -88.571704 76 810ft 0kts
17-Jul-22 11:17 43.990524 -88.571704 76 810ft 0kts
17-Jul-22 11:18 43.990524 -88.571704 76 810ft 0kts
17-Jul-22 11:19 43.990524 -88.571704 76 810ft 0kts
17-Jul-22 11:20 43.990598 -88.571551 45 810ft 5kts
17-Jul-22 11:21 43.990956 -88.567471 88 810ft 14kts
17-Jul-22 11:22 43.990936 -88.560838 91 810ft 14kts
17-Jul-22 11:23 43.988164 -88.554574 142 810ft 15kts
17-Jul-22 11:24 43.984675 -88.554318 178 810ft 11kts
17-Jul-22 11:25 43.983009 -88.554330 181 810ft 0kts
17-Jul-22 11:26 43.958445 -88.553167 175 1125ft 138kts
17-Jul-22 11:27 43.915348 -88.549655 175 1309ft 170kts
17-Jul-22 11:28 43.874149 -88.556963 202 2225ft 145kts
17-Jul-22 11:29 43.842011 -88.588201 239 3409ft 149kts
17-Jul-22 11:30 43.817238 -88.647949 239 3502ft 202kts
17-Jul-22 11:31 43.787549 -88.718874 239 3500ft 219kts
17-Jul-22 11:32 43.756605 -88.792494 239 3500ft 223kts
17-Jul-22 11:33 43.724973 -88.867559 239 3500ft 226kts
17-Jul-22 11:34 43.693139 -88.942901 239 3499ft 227kts
17-Jul-22 11:35 43.661132 -89.018456 239 3499ft 227kts
17-Jul-22 11:36 43.629103 -89.093868 239 3500ft 227kts
17-Jul-22 11:37 43.597015 -89.169169 239 3500ft 227kts
17-Jul-22 11:38 43.564898 -89.244391 239 3499ft 227kts
17-Jul-22 11:39 43.532706 -89.319594 239 3499ft 227kts
17-Jul-22 11:40 43.500451 -89.394751 239 3500ft 227kts
17-Jul-22 11:41 43.467772 -89.466022 240 3136ft 199kts
17-Jul-22 11:42 43.444151 -89.521613 239 2998ft 142kts
17-Jul-22 11:43 43.424556 -89.567484 239 3000ft 144kts
17-Jul-22 11:44 43.403735 -89.616285 239 3000ft 150kts
17-Jul-22 11:45 43.382386 -89.666217 238 3000ft 151kts
17-Jul-22 11:46 43.353063 -89.707418 223 3000ft 151kts
17-Jul-22 11:47 43.328507 -89.752511 256 2997ft 151kts
17-Jul-22 11:48 43.326897 -89.807362 317 2986ft 144kts
17-Jul-22 11:49 43.362545 -89.804147 7 2998ft 126kts
17-Jul-22 11:50 43.396984 -89.796857 7 3000ft 125kts
17-Jul-22 11:51 43.430305 -89.789847 6 2669ft 116kts
17-Jul-22 11:52 43.462453 -89.783032 6 2056ft 117kts
17-Jul-22 11:53 43.493835 -89.776376 5 1440ft 103kts
17-Jul-22 11:54 43.519749 -89.770888 10 981ft 58kts
17-Jul-22 11:55 43.519562 -89.771604 275 981ft 9kts
17-Jul-22 11:56 43.520133 -89.773613 172 981ft 0kts
17-Jul-22 11:57 43.520131 -89.773613 179 981ft 0kts
17-Jul-22 11:58 43.520131 -89.773613 179 981ft 0kts
17-Jul-22 11:59 43.520131 -89.773613 179 981ft 0kts
17-Jul-22 12:01 43.520131 -89.773613 179 981ft 0kts
17-Jul-22 12:02 43.520131 -89.773613 179 981ft 0kts
17-Jul-22 12:03 43.520131 -89.773613 179 981ft 0kts
17-Jul-22 12:04 43.520131 -89.773613 179 981ft 0kts

Navigation Log

Ident Type
Flight plan parsing failed, navigation log unavailable